Time;durP1;ratioP1;P1;durP2;ratioP2;P2;SDS_P1;SDS_P2;PMS_P1;PMS_P2;Temp;Humidity;BMP_temperature;BMP_pressure;BME280_temperature;BME280_humidity;BME280_pressure;Samples;Min_cycle;Max_cycle;Signal;HPM_P1;HPM_P2
2022/06/04 00:00:28;;;;;;;0.10;0.10;;;;;;;;;;5043462;28;20098;-89
2022/06/04 00:02:55;;;;;;;0.20;0.20;;;;;;;;;;5043710;28;20045;-88
2022/06/04 00:05:31;;;;;;;0.10;0.10;;;;;;;;;;5043262;28;20391;-88
2022/06/04 00:07:59;;;;;;;0.10;0.10;;;;;;;;;;5044095;28;20060;-89
2022/06/04 00:15:57;;;;;;;0.10;0.10;;;;;;;;;;5052918;28;20470;-88
2022/06/04 00:18:23;;;;;;;0.10;0.10;;;;;;;;;;5056110;28;20783;-88
2022/06/04 00:20:50;;;;;;;0.20;0.20;;;;;;;;;;5057388;28;20037;-89
2022/06/04 00:23:16;;;;;;;0.30;0.30;;;;;;;;;;5043092;28;20032;-89
2022/06/04 00:25:47;;;;;;;0.10;0.10;;;;;;;;;;5038629;28;20075;-89
2022/06/04 00:28:14;;;;;;;0.10;0.10;;;;;;;;;;5043040;28;20413;-89
2022/06/04 00:30:40;;;;;;;0.15;0.15;;;;;;;;;;5043229;28;20036;-89
2022/06/04 00:33:06;;;;;;;0.20;0.20;;;;;;;;;;5039567;28;20044;-90
2022/06/04 00:35:34;;;;;;;0.15;0.15;;;;;;;;;;5039316;28;20047;-89
2022/06/04 00:38:01;;;;;;;0.20;0.20;;;;;;;;;;5042975;28;20552;-88
2022/06/04 00:40:32;;;;;;;0.10;0.10;;;;;;;;;;5042512;28;20048;-89
2022/06/04 00:42:58;;;;;;;0.15;0.15;;;;;;;;;;5035790;28;20123;-89
2022/06/04 00:45:37;;;;;;;0.20;0.20;;;;;;;;;;5042381;28;20193;-88
2022/06/04 00:48:06;;;;;;;0.13;0.13;;;;;;;;;;5041724;28;20105;-88
2022/06/04 00:50:34;;;;;;;0.20;0.20;;;;;;;;;;5041806;28;20434;-89
2022/06/04 00:53:02;;;;;;;0.20;0.20;;;;;;;;;;5042070;28;20143;-89
2022/06/04 00:55:33;;;;;;;0.10;0.10;;;;;;;;;;5041186;28;20032;-88
2022/06/04 00:58:05;;;;;;;0.10;0.10;;;;;;;;;;5035317;28;20509;-87
2022/06/04 01:00:38;;;;;;;0.13;0.13;;;;;;;;;;5041952;28;20482;-89
2022/06/04 01:03:04;;;;;;;0.10;0.10;;;;;;;;;;5035644;28;20043;-89
2022/06/04 01:05:45;;;;;;;0.10;0.10;;;;;;;;;;5035130;28;20569;-88
2022/06/04 01:08:23;;;;;;;0.17;0.17;;;;;;;;;;5030391;28;20040;-89
2022/06/04 01:11:09;;;;;;;0.20;0.20;;;;;;;;;;5041372;28;20120;-89
2022/06/04 01:13:54;;;;;;;0.10;0.10;;;;;;;;;;5058609;28;20040;-89
2022/06/04 01:16:23;;;;;;;0.17;0.17;;;;;;;;;;5052380;28;20052;-89
2022/06/04 01:19:07;;;;;;;0.20;0.20;;;;;;;;;;5036972;28;20040;-89
2022/06/04 01:21:52;;;;;;;0.10;0.10;;;;;;;;;;5042184;28;20045;-89
2022/06/04 01:24:19;;;;;;;0.10;0.10;;;;;;;;;;5041010;28;20044;-90
2022/06/04 01:26:57;;;;;;;0.20;0.20;;;;;;;;;;5058045;28;20051;-89
2022/06/04 01:29:35;;;;;;;0.20;0.20;;;;;;;;;;5042963;28;20040;-89
2022/06/04 01:32:06;;;;;;;0.30;0.30;;;;;;;;;;5042376;28;20405;-89
2022/06/04 01:34:36;;;;;;;0.10;0.10;;;;;;;;;;5035514;28;20036;-89
2022/06/04 01:37:05;;;;;;;0.20;0.20;;;;;;;;;;5058098;28;20040;-89
2022/06/04 01:42:22;;;;;;;0.28;0.28;;;;;;;;;;5059265;28;20105;-90
2022/06/04 01:44:49;;;;;;;0.10;0.10;;;;;;;;;;5058381;28;20044;-89
2022/06/04 01:47:16;;;;;;;0.20;0.20;;;;;;;;;;5051662;28;20052;-89
2022/06/04 01:49:47;;;;;;;0.10;0.10;;;;;;;;;;5035687;28;20075;-89
2022/06/04 01:52:40;;;;;;;0.10;0.10;;;;;;;;;;5042927;28;20047;-90
2022/06/04 01:55:12;;;;;;;0.20;0.20;;;;;;;;;;5032352;28;20062;-89
2022/06/04 01:57:57;;;;;;;0.20;0.20;;;;;;;;;;5041408;28;20076;-90
2022/06/04 02:00:25;;;;;;;0.10;0.10;;;;;;;;;;5042187;28;20044;-90
2022/06/04 02:02:56;;;;;;;0.10;0.10;;;;;;;;;;5042265;28;20494;-89
2022/06/04 02:05:25;;;;;;;0.10;0.10;;;;;;;;;;5040965;28;20046;-88
2022/06/04 02:07:52;;;;;;;0.10;0.10;;;;;;;;;;5040961;28;20118;-89
2022/06/04 02:10:28;;;;;;;0.10;0.10;;;;;;;;;;5040031;28;20052;-89
2022/06/04 02:12:55;;;;;;;0.10;0.10;;;;;;;;;;5035170;28;20036;-89
2022/06/04 02:15:22;;;;;;;0.10;0.10;;;;;;;;;;5034682;28;20127;-89
2022/06/04 02:17:53;;;;;;;0.20;0.20;;;;;;;;;;5041778;28;20162;-89
2022/06/04 02:20:20;;;;;;;0.10;0.10;;;;;;;;;;5035103;28;20040;-89
2022/06/04 02:22:46;;;;;;;0.10;0.10;;;;;;;;;;5025496;28;20044;-89
2022/06/04 02:25:13;;;;;;;0.20;0.20;;;;;;;;;;5057938;28;20036;-90
2022/06/04 02:27:41;;;;;;;0.10;0.10;;;;;;;;;;5034227;28;20490;-89
2022/06/04 02:30:08;;;;;;;0.20;0.20;;;;;;;;;;5041498;28;20040;-89
2022/06/04 02:32:37;;;;;;;0.20;0.20;;;;;;;;;;5041692;28;20066;-89
2022/06/04 02:35:12;;;;;;;0.20;0.20;;;;;;;;;;5041852;28;20040;-89
2022/06/04 02:37:39;;;;;;;;;;;;;;;;;;5035502;28;20041;-90
2022/06/04 02:40:05;;;;;;;0.20;0.20;;;;;;;;;;5058775;28;20393;-90
2022/06/04 02:42:34;;;;;;;0.10;0.10;;;;;;;;;;5041480;28;20078;-90
2022/06/04 02:45:10;;;;;;;0.10;0.10;;;;;;;;;;5042528;28;20059;-90
2022/06/04 02:47:46;;;;;;;0.28;0.28;;;;;;;;;;5035762;28;20102;-90
2022/06/04 02:50:12;;;;;;;;;;;;;;;;;;5043297;28;20044;-90
2022/06/04 02:52:38;;;;;;;0.17;0.17;;;;;;;;;;5059292;28;19923;-90
2022/06/04 02:55:07;;;;;;;0.10;0.10;;;;;;;;;;5038152;28;20079;-89
2022/06/04 02:57:34;;;;;;;0.20;0.20;;;;;;;;;;5035792;28;20040;-89
2022/06/04 03:00:01;;;;;;;0.20;0.20;;;;;;;;;;5060314;28;20037;-90
2022/06/04 03:02:28;;;;;;;0.20;0.20;;;;;;;;;;5026798;28;20120;-90
2022/06/04 03:04:56;;;;;;;0.20;0.20;;;;;;;;;;5046604;28;20037;-90
2022/06/04 03:07:23;;;;;;;0.22;0.22;;;;;;;;;;5055920;28;20044;-89
2022/06/04 03:09:51;;;;;;;0.10;0.10;;;;;;;;;;5042322;28;20044;-88
2022/06/04 03:12:17;;;;;;;0.20;0.20;;;;;;;;;;5041895;28;20045;-89
2022/06/04 03:14:44;;;;;;;0.10;0.10;;;;;;;;;;5037163;28;20086;-90
2022/06/04 03:17:12;;;;;;;0.22;0.22;;;;;;;;;;5042271;28;20094;-90
2022/06/04 03:19:38;;;;;;;0.20;0.20;;;;;;;;;;5043112;28;20079;-90
2022/06/04 03:22:05;;;;;;;0.20;0.20;;;;;;;;;;5037946;28;20049;-90
2022/06/04 03:24:31;;;;;;;0.20;0.20;;;;;;;;;;5046084;28;20036;-89
2022/06/04 03:27:04;;;;;;;0.20;0.20;;;;;;;;;;5045691;28;20458;-89
2022/06/04 03:29:30;;;;;;;0.20;0.20;;;;;;;;;;5045868;28;20486;-89
2022/06/04 03:31:57;;;;;;;0.20;0.20;;;;;;;;;;5046736;28;20058;-90
2022/06/04 03:34:23;;;;;;;0.20;0.20;;;;;;;;;;5064091;28;20125;-89
2022/06/04 03:36:49;;;;;;;0.15;0.15;;;;;;;;;;5046479;28;20047;-90
2022/06/04 03:39:15;;;;;;;0.20;0.20;;;;;;;;;;5046241;28;20032;-90
2022/06/04 03:41:42;;;;;;;0.10;0.10;;;;;;;;;;5055308;28;20490;-89
2022/06/04 03:44:09;;;;;;;0.20;0.20;;;;;;;;;;5041313;28;20040;-91
2022/06/04 03:46:35;;;;;;;0.30;0.30;;;;;;;;;;5046424;28;20037;-90
2022/06/04 03:49:01;;;;;;;0.10;0.10;;;;;;;;;;5046597;28;20132;-90
2022/06/04 03:51:29;;;;;;;0.10;0.10;;;;;;;;;;5039430;28;20048;-90
2022/06/04 03:53:55;;;;;;;0.13;0.13;;;;;;;;;;5032524;28;20048;-89
2022/06/04 03:56:22;;;;;;;0.10;0.10;;;;;;;;;;5045716;28;20048;-90
2022/06/04 03:58:48;;;;;;;0.30;0.30;;;;;;;;;;5063299;28;20037;-90
2022/06/04 04:01:14;;;;;;;0.20;0.20;;;;;;;;;;5046284;28;20032;-89
2022/06/04 04:03:41;;;;;;;0.20;0.20;;;;;;;;;;5046052;28;20032;-89
2022/06/04 04:06:11;;;;;;;0.17;0.17;;;;;;;;;;5019455;28;20052;-90
2022/06/04 04:08:37;;;;;;;0.20;0.20;;;;;;;;;;5062878;28;20512;-89
2022/06/04 04:11:05;;;;;;;0.15;0.15;;;;;;;;;;5046273;28;20040;-90
2022/06/04 04:13:31;;;;;;;0.22;0.22;;;;;;;;;;5056317;28;20044;-89
2022/06/04 04:15:57;;;;;;;0.20;0.20;;;;;;;;;;5045187;28;20092;-89
2022/06/04 04:18:23;;;;;;;0.20;0.20;;;;;;;;;;5045799;28;20044;-89
2022/06/04 04:20:49;;;;;;;0.10;0.10;;;;;;;;;;5033322;28;20040;-88
2022/06/04 04:23:16;;;;;;;0.03;0.03;;;;;;;;;;5044649;28;20233;-89
2022/06/04 04:25:42;;;;;;;0.15;0.15;;;;;;;;;;5044770;28;20472;-89
2022/06/04 04:28:08;;;;;;;0.30;0.30;;;;;;;;;;5045035;28;20079;-90
2022/06/04 04:30:35;;;;;;;0.20;0.20;;;;;;;;;;5038300;28;20124;-90
2022/06/04 04:33:01;;;;;;;0.63;0.63;;;;;;;;;;5043648;28;20044;-87
2022/06/04 04:35:29;;;;;;;0.10;0.10;;;;;;;;;;5027797;28;20122;-88
2022/06/04 04:37:55;;;;;;;0.20;0.20;;;;;;;;;;5044532;28;20242;-87
2022/06/04 04:40:25;;;;;;;0.20;0.20;;;;;;;;;;5044041;28;20044;-88
2022/06/04 04:42:52;;;;;;;0.10;0.10;;;;;;;;;;5043736;28;20052;-88
2022/06/04 04:45:20;;;;;;;0.10;0.10;;;;;;;;;;5037641;28;20401;-88
2022/06/04 04:47:47;;;;;;;0.10;0.10;;;;;;;;;;5024313;28;20055;-88
2022/06/04 04:50:16;;;;;;;0.20;0.20;;;;;;;;;;5058633;28;20043;-88
2022/06/04 04:52:42;;;;;;;0.10;0.10;;;;;;;;;;5043983;28;20119;-89
2022/06/04 04:55:08;;;;;;;0.20;0.20;;;;;;;;;;5038386;28;20036;-88
2022/06/04 04:57:34;;;;;;;0.20;0.20;;;;;;;;;;5059721;28;20043;-89
2022/06/04 05:00:00;;;;;;;0.10;0.10;;;;;;;;;;5044148;28;20036;-88
2022/06/04 05:02:26;;;;;;;0.10;0.10;;;;;;;;;;5037203;28;20068;-88
2022/06/04 05:04:52;;;;;;;0.20;0.20;;;;;;;;;;5043927;28;20040;-88
2022/06/04 05:07:18;;;;;;;0.20;0.20;;;;;;;;;;5040234;28;20045;-87
2022/06/04 05:09:44;;;;;;;0.20;0.20;;;;;;;;;;5040204;28;20048;-88
2022/06/04 05:12:12;;;;;;;0.30;0.30;;;;;;;;;;5042777;28;20047;-88
2022/06/04 05:14:38;;;;;;;0.20;0.20;;;;;;;;;;5042327;28;20044;-87
2022/06/04 05:17:04;;;;;;;0.30;0.30;;;;;;;;;;5041727;28;20072;-88
2022/06/04 05:19:31;;;;;;;0.10;0.10;;;;;;;;;;5042433;28;20043;-88
2022/06/04 05:21:57;;;;;;;0.20;0.20;;;;;;;;;;5036177;28;20041;-88
2022/06/04 05:24:26;;;;;;;0.15;0.15;;;;;;;;;;5043053;28;20040;-89
2022/06/04 05:26:55;;;;;;;0.10;0.10;;;;;;;;;;5040620;28;20036;-89
2022/06/04 05:29:21;;;;;;;0.20;0.20;;;;;;;;;;5039638;28;20570;-89
2022/06/04 05:31:47;;;;;;;0.20;0.20;;;;;;;;;;5040069;28;20103;-88
2022/06/04 05:34:14;;;;;;;0.10;0.10;;;;;;;;;;5037517;28;20044;-88
2022/06/04 05:36:40;;;;;;;0.20;0.20;;;;;;;;;;5028224;28;20083;-88
2022/06/04 05:39:07;;;;;;;0.20;0.20;;;;;;;;;;5042282;28;20044;-88
2022/06/04 05:41:34;;;;;;;0.20;0.20;;;;;;;;;;5035707;28;20037;-88
2022/06/04 05:44:01;;;;;;;0.08;0.08;;;;;;;;;;5058328;28;20036;-89
2022/06/04 05:46:27;;;;;;;0.10;0.10;;;;;;;;;;5041154;28;20051;-88
2022/06/04 05:48:53;;;;;;;0.20;0.20;;;;;;;;;;5040465;28;20037;-88
2022/06/04 05:51:20;;;;;;;0.20;0.20;;;;;;;;;;5041182;28;20037;-87
2022/06/04 05:53:48;;;;;;;0.20;0.20;;;;;;;;;;5042208;28;20044;-89
2022/06/04 05:56:16;;;;;;;0.20;0.20;;;;;;;;;;5041430;28;20101;-88
2022/06/04 05:58:42;;;;;;;0.10;0.10;;;;;;;;;;5042665;28;20047;-88
2022/06/04 06:01:08;;;;;;;0.28;0.28;;;;;;;;;;5041554;28;20041;-89
2022/06/04 06:03:34;;;;;;;0.20;0.20;;;;;;;;;;5036531;28;20497;-87
2022/06/04 06:06:01;;;;;;;0.10;0.10;;;;;;;;;;5039245;28;20040;-89
2022/06/04 06:08:37;;;;;;;0.20;0.20;;;;;;;;;;5039691;28;20055;-88
2022/06/04 06:11:06;;;;;;;0.10;0.10;;;;;;;;;;5029282;28;20099;-88
2022/06/04 06:13:32;;;;;;;0.10;0.10;;;;;;;;;;5040207;28;20106;-89
2022/06/04 06:16:03;;;;;;;0.13;0.13;;;;;;;;;;5035488;28;20095;-89
2022/06/04 06:18:29;;;;;;;0.00;0.00;;;;;;;;;;5033966;28;20048;-88
2022/06/04 06:20:56;;;;;;;0.22;0.22;;;;;;;;;;5041013;28;20033;-88
2022/06/04 06:23:22;;;;;;;0.10;0.10;;;;;;;;;;5041354;28;20041;-88
2022/06/04 06:25:48;;;;;;;0.20;0.20;;;;;;;;;;5040530;28;20044;-88
2022/06/04 06:28:14;;;;;;;0.20;0.20;;;;;;;;;;5036471;28;20040;-88
2022/06/04 06:30:40;;;;;;;0.10;0.10;;;;;;;;;;5041131;28;20040;-88
2022/06/04 06:33:06;;;;;;;0.10;0.10;;;;;;;;;;5041118;28;20123;-88
2022/06/04 06:35:32;;;;;;;0.10;0.10;;;;;;;;;;5040599;28;20036;-88
2022/06/04 06:37:58;;;;;;;0.10;0.10;;;;;;;;;;5040342;28;20041;-88
2022/06/04 06:40:24;;;;;;;0.10;0.10;;;;;;;;;;5040716;28;20052;-87
2022/06/04 06:42:50;;;;;;;0.20;0.20;;;;;;;;;;5040892;28;20037;-88
2022/06/04 06:45:16;;;;;;;0.10;0.10;;;;;;;;;;5041009;28;20040;-88
2022/06/04 06:47:44;;;;;;;0.20;0.20;;;;;;;;;;5039942;28;20383;-89
2022/06/04 06:50:10;;;;;;;0.10;0.10;;;;;;;;;;5034907;28;20044;-88
2022/06/04 06:52:36;;;;;;;0.10;0.10;;;;;;;;;;5056922;28;20051;-89
2022/06/04 06:55:02;;;;;;;0.10;0.10;;;;;;;;;;5039910;28;20135;-88
2022/06/04 06:57:28;;;;;;;0.20;0.20;;;;;;;;;;5042508;28;20041;-89
2022/06/04 06:59:55;;;;;;;0.10;0.10;;;;;;;;;;5044668;28;20036;-89
2022/06/04 07:02:21;;;;;;;0.10;0.10;;;;;;;;;;5037462;28;20051;-87
2022/06/04 07:04:47;;;;;;;0.20;0.20;;;;;;;;;;5044675;28;20040;-88
2022/06/04 07:07:13;;;;;;;0.20;0.20;;;;;;;;;;5044478;28;20044;-88
2022/06/04 07:09:40;;;;;;;0.10;0.10;;;;;;;;;;5044015;28;20044;-88
2022/06/04 07:12:19;;;;;;;0.20;0.20;;;;;;;;;;5044522;28;20094;-87
2022/06/04 07:14:45;;;;;;;0.20;0.20;;;;;;;;;;5044597;28;20036;-88
2022/06/04 07:17:13;;;;;;;0.00;0.00;;;;;;;;;;5043427;28;20072;-88
2022/06/04 07:19:39;;;;;;;0.20;0.20;;;;;;;;;;5044184;28;20128;-88
2022/06/04 07:22:05;;;;;;;0.10;0.10;;;;;;;;;;5044582;28;20509;-88
2022/06/04 07:24:31;;;;;;;0.00;0.00;;;;;;;;;;5037561;28;20032;-89
2022/06/04 07:26:57;;;;;;;0.10;0.10;;;;;;;;;;5037147;28;20071;-88
2022/06/04 07:29:23;;;;;;;0.10;0.10;;;;;;;;;;5037705;28;20040;-89
2022/06/04 07:31:49;;;;;;;0.10;0.10;;;;;;;;;;5024771;28;20128;-89
2022/06/04 07:34:15;;;;;;;0.10;0.10;;;;;;;;;;5057652;28;20040;-88
2022/06/04 07:36:43;;;;;;;0.10;0.10;;;;;;;;;;5043800;28;20072;-89
2022/06/04 07:39:10;;;;;;;0.10;0.10;;;;;;;;;;5043898;28;20033;-88
2022/06/04 07:41:43;;;;;;;0.10;0.10;;;;;;;;;;5043816;28;20090;-88
2022/06/04 07:44:09;;;;;;;0.10;0.10;;;;;;;;;;5028090;28;20658;-89
2022/06/04 07:46:35;;;;;;;0.00;0.00;;;;;;;;;;5042653;28;20120;-89
2022/06/04 07:49:05;;;;;;;0.03;0.03;;;;;;;;;;5059457;28;20123;-89
2022/06/04 07:51:37;;;;;;;0.00;0.00;;;;;;;;;;5060903;28;20051;-88
2022/06/04 07:54:04;;;;;;;0.10;0.10;;;;;;;;;;5060439;28;20036;-88
2022/06/04 07:56:30;;;;;;;0.00;0.00;;;;;;;;;;5042820;28;20036;-89
2022/06/04 07:58:57;;;;;;;0.00;0.00;;;;;;;;;;5042826;28;20262;-88
2022/06/04 08:01:28;;;;;;;0.10;0.10;;;;;;;;;;5054539;28;20593;-88
2022/06/04 08:03:54;;;;;;;0.10;0.10;;;;;;;;;;5033703;28;20044;-88
2022/06/04 08:06:21;;;;;;;0.10;0.10;;;;;;;;;;5036463;28;20076;-88
2022/06/04 08:08:50;;;;;;;0.00;0.00;;;;;;;;;;5037039;28;20044;-88
2022/06/04 08:11:33;;;;;;;0.10;0.10;;;;;;;;;;5061261;28;20044;-88
2022/06/04 08:14:03;;;;;;;0.03;0.03;;;;;;;;;;5037832;28;20501;-88
2022/06/04 08:16:32;;;;;;;0.10;0.10;;;;;;;;;;5053119;28;20422;-89
2022/06/04 08:18:58;;;;;;;0.10;0.10;;;;;;;;;;5059996;28;20498;-87
2022/06/04 08:21:25;;;;;;;0.10;0.10;;;;;;;;;;5035025;28;20433;-87
2022/06/04 08:23:51;;;;;;;0.20;0.20;;;;;;;;;;5059870;28;20071;-88
2022/06/04 08:26:17;;;;;;;0.10;0.10;;;;;;;;;;5042407;28;20041;-87
2022/06/04 08:28:43;;;;;;;0.03;0.03;;;;;;;;;;5035860;28;20044;-89
2022/06/04 08:31:11;;;;;;;0.05;0.05;;;;;;;;;;5036956;28;20037;-87
2022/06/04 08:33:38;;;;;;;0.10;0.10;;;;;;;;;;5041907;28;20098;-87
2022/06/04 08:36:05;;;;;;;0.00;0.00;;;;;;;;;;5042185;28;20044;-88
2022/06/04 08:38:31;;;;;;;0.00;0.00;;;;;;;;;;5029343;28;20040;-88
2022/06/04 08:40:59;;;;;;;0.10;0.10;;;;;;;;;;5058936;28;20123;-87
2022/06/04 08:43:32;;;;;;;0.10;0.10;;;;;;;;;;5058966;28;20504;-88
2022/06/04 08:45:58;;;;;;;0.10;0.10;;;;;;;;;;5041831;28;20044;-87
2022/06/04 08:48:35;;;;;;;0.00;0.00;;;;;;;;;;5045482;28;20047;-88
2022/06/04 08:51:01;;;;;;;0.10;0.10;;;;;;;;;;5071050;28;20036;-88
2022/06/04 08:53:28;;;;;;;0.10;0.10;;;;;;;;;;5056762;28;20041;-88
2022/06/04 08:58:55;;;;;;;0.10;0.10;;;;;;;;;;5056061;28;20044;-88
2022/06/04 09:01:32;;;;;;;0.00;0.00;;;;;;;;;;5044176;28;20032;-88
2022/06/04 09:04:01;;;;;;;0.10;0.10;;;;;;;;;;5038864;28;20036;-88
2022/06/04 09:06:33;;;;;;;0.10;0.10;;;;;;;;;;5037628;28;20386;-88
2022/06/04 09:09:03;;;;;;;0.08;0.08;;;;;;;;;;5045435;28;20503;-87
2022/06/04 09:11:55;;;;;;;0.10;0.10;;;;;;;;;;5060266;28;20048;-88
2022/06/04 09:14:25;;;;;;;0.10;0.10;;;;;;;;;;5037381;28;20036;-87
2022/06/04 09:17:00;;;;;;;0.10;0.10;;;;;;;;;;5043075;28;20041;-87
2022/06/04 09:19:28;;;;;;;0.00;0.00;;;;;;;;;;5037901;28;20032;-86
2022/06/04 09:21:54;;;;;;;0.00;0.00;;;;;;;;;;5028049;28;20032;-87
2022/06/04 09:24:20;;;;;;;0.10;0.10;;;;;;;;;;5040507;28;20041;-87
2022/06/04 09:26:56;;;;;;;0.10;0.10;;;;;;;;;;5040903;28;20041;-87
2022/06/04 09:29:28;;;;;;;0.05;0.05;;;;;;;;;;5047150;28;20124;-87
2022/06/04 09:32:09;;;;;;;0.10;0.10;;;;;;;;;;5041428;28;20052;-86
2022/06/04 09:34:37;;;;;;;0.10;0.10;;;;;;;;;;5040946;28;20064;-86
2022/06/04 09:37:08;;;;;;;0.00;0.00;;;;;;;;;;5048565;28;20041;-93
2022/06/04 09:39:35;;;;;;;0.10;0.10;;;;;;;;;;5046934;28;20036;-93
2022/06/04 09:42:04;;;;;;;0.20;0.20;;;;;;;;;;5057335;28;20040;-92
2022/06/04 09:44:33;;;;;;;0.10;0.10;;;;;;;;;;5055156;28;20062;-94
2022/06/04 09:47:05;;;;;;;0.05;0.05;;;;;;;;;;5045019;28;20040;-95
2022/06/04 09:49:42;;;;;;;0.15;0.15;;;;;;;;;;5047694;28;20048;-94
2022/06/04 09:52:11;;;;;;;0.10;0.10;;;;;;;;;;5050145;28;20044;-94
2022/06/04 09:54:40;;;;;;;0.10;0.10;;;;;;;;;;5050367;28;20096;-94
2022/06/04 09:57:08;;;;;;;0.10;0.10;;;;;;;;;;5047864;28;20419;-92
2022/06/04 09:59:34;;;;;;;0.05;0.05;;;;;;;;;;5050900;28;20036;-92
2022/06/04 10:02:17;;;;;;;0.00;0.00;;;;;;;;;;5048972;28;20036;-91
2022/06/04 10:08:13;;;;;;;0.00;0.00;;;;;;;;;;5080483;28;20047;-92
2022/06/04 10:10:42;;;;;;;0.10;0.10;;;;;;;;;;5045705;28;20131;-94
2022/06/04 10:16:02;;;;;;;0.00;0.00;;;;;;;;;;5065548;28;20060;-95
2022/06/04 10:18:30;;;;;;;0.00;0.00;;;;;;;;;;5051301;28;20066;-93
2022/06/04 10:21:05;;;;;;;0.00;0.00;;;;;;;;;;5051533;28;20033;-91
2022/06/04 10:23:40;;;;;;;0.00;0.00;;;;;;;;;;5048071;28;20072;-91
2022/06/04 10:26:25;;;;;;;0.03;0.03;;;;;;;;;;5066914;28;20048;-92
2022/06/04 10:29:11;;;;;;;0.03;0.03;;;;;;;;;;5065991;28;20504;-89
2022/06/04 10:31:54;;;;;;;0.00;0.00;;;;;;;;;;5052616;28;20063;-94
2022/06/04 10:34:39;;;;;;;0.10;0.10;;;;;;;;;;5081951;28;20080;-93
2022/06/04 10:37:24;;;;;;;0.00;0.00;;;;;;;;;;5053612;28;20374;-94
2022/06/04 10:40:26;;;;;;;0.00;0.00;;;;;;;;;;5050403;28;20040;-86
2022/06/04 10:43:07;;;;;;;0.10;0.10;;;;;;;;;;5009299;28;20070;-91
2022/06/04 10:45:59;;;;;;;0.03;0.03;;;;;;;;;;5046951;28;20045;-92
2022/06/04 10:48:25;;;;;;;0.00;0.00;;;;;;;;;;5051496;28;20048;-91
2022/06/04 10:53:55;;;;;;;0.10;0.10;;;;;;;;;;5070292;28;20074;-93
2022/06/04 10:56:28;;;;;;;0.08;0.08;;;;;;;;;;5071208;28;20108;-91
2022/06/04 10:59:00;;;;;;;0.05;0.05;;;;;;;;;;5051573;28;20040;-93
2022/06/04 11:01:41;;;;;;;0.00;0.00;;;;;;;;;;5055973;28;20036;-91
2022/06/04 11:04:13;;;;;;;0.10;0.10;;;;;;;;;;5083368;28;20048;-88
2022/06/04 11:06:45;;;;;;;0.00;0.00;;;;;;;;;;5048035;28;20151;-92
2022/06/04 11:09:14;;;;;;;0.03;0.03;;;;;;;;;;5049749;28;20505;-94
2022/06/04 11:11:43;;;;;;;0.05;0.05;;;;;;;;;;5057276;28;20032;-93
2022/06/04 11:14:35;;;;;;;0.08;0.08;;;;;;;;;;5057442;28;20042;-92
2022/06/04 11:17:05;;;;;;;0.08;0.08;;;;;;;;;;5036947;28;20044;-90
2022/06/04 11:19:56;;;;;;;0.00;0.00;;;;;;;;;;5069464;28;20041;-92
2022/06/04 11:22:33;;;;;;;0.10;0.10;;;;;;;;;;5051786;28;20069;-92
2022/06/04 11:25:25;;;;;;;0.10;0.10;;;;;;;;;;5048232;28;20440;-93
2022/06/04 11:27:54;;;;;;;0.10;0.10;;;;;;;;;;5048883;28;20037;-92
2022/06/04 11:30:25;;;;;;;0.10;0.10;;;;;;;;;;5074002;28;20044;-90
2022/06/04 11:32:57;;;;;;;0.08;0.08;;;;;;;;;;5068653;28;20425;-90
2022/06/04 11:35:29;;;;;;;0.10;0.10;;;;;;;;;;5046000;28;20040;-86
2022/06/04 11:38:05;;;;;;;0.00;0.00;;;;;;;;;;5057995;28;20048;-92
2022/06/04 11:40:58;;;;;;;0.10;0.10;;;;;;;;;;5063049;28;20454;-91
2022/06/04 11:43:41;;;;;;;0.10;0.10;;;;;;;;;;5039566;28;20053;-89
2022/06/04 11:46:20;;;;;;;0.00;0.00;;;;;;;;;;5047727;28;20471;-92
2022/06/04 11:49:13;;;;;;;0.10;0.10;;;;;;;;;;5046188;28;20112;-87
2022/06/04 11:51:45;;;;;;;0.10;0.10;;;;;;;;;;5059740;28;20053;-91
2022/06/04 11:54:30;;;;;;;0.10;0.10;;;;;;;;;;5048192;28;20576;-92
2022/06/04 11:57:05;;;;;;;0.00;0.00;;;;;;;;;;5048394;28;20127;-91
2022/06/04 11:59:40;;;;;;;0.00;0.00;;;;;;;;;;5049863;28;20040;-91
2022/06/04 12:02:13;;;;;;;0.10;0.10;;;;;;;;;;5069735;28;20266;-91
2022/06/04 12:04:43;;;;;;;0.00;0.00;;;;;;;;;;5047346;28;20121;-91
2022/06/04 12:07:14;;;;;;;0.00;0.00;;;;;;;;;;5063987;28;20040;-90
2022/06/04 12:09:43;;;;;;;0.10;0.10;;;;;;;;;;5071373;28;20051;-90
2022/06/04 12:12:24;;;;;;;0.00;0.00;;;;;;;;;;5067934;28;20110;-90
2022/06/04 12:15:01;;;;;;;0.10;0.10;;;;;;;;;;5053066;28;20040;-92
2022/06/04 12:17:40;;;;;;;0.10;0.10;;;;;;;;;;5049406;28;20037;-91
2022/06/04 12:25:40;;;;;;;0.10;0.10;;;;;;;;;;5067447;28;20044;-93
2022/06/04 12:28:21;;;;;;;0.00;0.00;;;;;;;;;;5055691;28;20104;-93
2022/06/04 12:30:47;;;;;;;0.00;0.00;;;;;;;;;;5070569;28;20044;-93
2022/06/04 12:33:23;;;;;;;0.00;0.00;;;;;;;;;;5053877;28;20095;-93
2022/06/04 12:36:02;;;;;;;0.00;0.00;;;;;;;;;;5053455;28;20506;-89
2022/06/04 12:38:29;;;;;;;0.00;0.00;;;;;;;;;;5048334;28;20067;-91
2022/06/04 12:41:10;;;;;;;0.00;0.00;;;;;;;;;;5052431;28;20067;-91
2022/06/04 12:43:39;;;;;;;0.00;0.00;;;;;;;;;;5043266;28;20033;-93
2022/06/04 12:46:08;;;;;;;0.00;0.00;;;;;;;;;;5052954;28;20047;-91
2022/06/04 12:48:36;;;;;;;0.00;0.00;;;;;;;;;;5051686;28;20042;-90
2022/06/04 12:51:05;;;;;;;0.03;0.03;;;;;;;;;;5058420;28;20040;-91
2022/06/04 12:53:34;;;;;;;0.00;0.00;;;;;;;;;;5054339;28;20025;-93
2022/06/04 12:56:05;;;;;;;0.00;0.00;;;;;;;;;;5069096;28;20033;-92
2022/06/04 12:58:43;;;;;;;0.00;0.00;;;;;;;;;;5052159;28;20397;-92
2022/06/04 13:01:18;;;;;;;0.00;0.00;;;;;;;;;;5055630;28;20099;-92
2022/06/04 13:03:45;;;;;;;0.00;0.00;;;;;;;;;;5051604;28;20443;-93
2022/06/04 13:06:31;;;;;;;0.10;0.10;;;;;;;;;;5055359;28;20528;-91
2022/06/04 13:09:03;;;;;;;0.10;0.10;;;;;;;;;;5083152;28;20533;-93
2022/06/04 13:11:43;;;;;;;0.10;0.10;;;;;;;;;;5055104;28;20040;-94
2022/06/04 13:14:18;;;;;;;0.10;0.10;;;;;;;;;;5061771;28;20040;-93
2022/06/04 13:16:55;;;;;;;0.00;0.00;;;;;;;;;;5057498;28;20100;-94
2022/06/04 13:19:30;;;;;;;0.05;0.05;;;;;;;;;;5048918;28;20094;-88
2022/06/04 13:21:58;;;;;;;0.00;0.00;;;;;;;;;;5039264;28;20444;-94
2022/06/04 13:24:25;;;;;;;0.10;0.10;;;;;;;;;;5062375;28;20036;-92
2022/06/04 13:26:57;;;;;;;0.00;0.00;;;;;;;;;;5041910;28;20084;-91
2022/06/04 13:29:31;;;;;;;0.00;0.00;;;;;;;;;;5049716;28;20091;-87
2022/06/04 13:32:20;;;;;;;0.00;0.00;;;;;;;;;;5063799;28;20517;-92
2022/06/04 13:34:46;;;;;;;0.00;0.00;;;;;;;;;;5045631;28;20100;-90
2022/06/04 13:37:21;;;;;;;0.00;0.00;;;;;;;;;;5047168;28;20048;-92
2022/06/04 13:39:52;;;;;;;0.00;0.00;;;;;;;;;;5041477;28;20387;-92
2022/06/04 13:42:23;;;;;;;0.00;0.00;;;;;;;;;;5044148;28;20382;-92
2022/06/04 13:44:55;;;;;;;0.00;0.00;;;;;;;;;;5040836;28;20183;-92
2022/06/04 13:47:22;;;;;;;0.00;0.00;;;;;;;;;;5034295;28;20049;-91
2022/06/04 13:49:51;;;;;;;0.00;0.00;;;;;;;;;;5040546;28;20044;-92
2022/06/04 13:52:18;;;;;;;0.00;0.00;;;;;;;;;;5058044;28;20076;-91
2022/06/04 13:54:50;;;;;;;0.00;0.00;;;;;;;;;;5035723;28;20036;-90
2022/06/04 13:57:30;;;;;;;0.10;0.10;;;;;;;;;;5046975;28;20462;-89
2022/06/04 13:59:59;;;;;;;0.00;0.00;;;;;;;;;;5042063;28;20124;-87
2022/06/04 14:02:27;;;;;;;0.00;0.00;;;;;;;;;;5047445;28;20044;-91
2022/06/04 14:07:41;;;;;;;0.00;0.00;;;;;;;;;;5062762;28;20547;-92
2022/06/04 14:10:12;;;;;;;0.00;0.00;;;;;;;;;;5043861;28;20067;-90
2022/06/04 14:12:47;;;;;;;0.00;0.00;;;;;;;;;;5040623;28;20052;-88
2022/06/04 14:15:21;;;;;;;0.10;0.10;;;;;;;;;;5063316;28;20045;-92
2022/06/04 14:18:10;;;;;;;0.00;0.00;;;;;;;;;;5062293;28;20048;-92
2022/06/04 14:20:39;;;;;;;0.05;0.05;;;;;;;;;;5049691;28;20043;-92
2022/06/04 14:23:24;;;;;;;0.00;0.00;;;;;;;;;;5046848;28;20040;-91
2022/06/04 14:25:54;;;;;;;0.10;0.10;;;;;;;;;;5045547;28;20036;-91
2022/06/04 14:28:46;;;;;;;0.08;0.08;;;;;;;;;;5045585;28;20040;-90
2022/06/04 14:31:24;;;;;;;0.03;0.03;;;;;;;;;;5035623;28;20048;-90
2022/06/04 14:33:56;;;;;;;0.00;0.00;;;;;;;;;;5046016;28;20120;-89
2022/06/04 14:36:22;;;;;;;0.03;0.03;;;;;;;;;;5024229;28;20052;-90
2022/06/04 14:38:51;;;;;;;0.00;0.00;;;;;;;;;;5040395;28;20041;-91
2022/06/04 14:41:17;;;;;;;0.00;0.00;;;;;;;;;;5053941;28;20044;-90
2022/06/04 14:43:55;;;;;;;0.10;0.10;;;;;;;;;;5038982;28;20041;-91
2022/06/04 14:46:44;;;;;;;0.10;0.10;;;;;;;;;;5046378;28;20047;-91
2022/06/04 14:49:10;;;;;;;0.05;0.05;;;;;;;;;;5057637;28;20045;-90
2022/06/04 14:52:06;;;;;;;0.10;0.10;;;;;;;;;;5042716;28;20094;-90
2022/06/04 14:54:33;;;;;;;0.00;0.00;;;;;;;;;;5043754;28;20075;-90
2022/06/04 14:57:14;;;;;;;0.10;0.10;;;;;;;;;;5043072;28;20044;-92
2022/06/04 14:59:54;;;;;;;0.00;0.00;;;;;;;;;;5036596;28;20037;-92
2022/06/04 15:02:26;;;;;;;0.08;0.08;;;;;;;;;;5061419;28;20059;-91
2022/06/04 15:05:18;;;;;;;0.10;0.10;;;;;;;;;;5045425;28;20123;-92
2022/06/04 15:08:20;;;;;;;0.10;0.10;;;;;;;;;;5036062;28;20111;-90
2022/06/04 15:10:46;;;;;;;0.10;0.10;;;;;;;;;;4962846;28;20243;-93
2022/06/04 15:13:31;;;;;;;0.00;0.00;;;;;;;;;;5043626;28;20053;-90
2022/06/04 15:15:58;;;;;;;;;;;;;;;;;;5045428;28;20041;-92
2022/06/04 15:18:30;;;;;;;0.10;0.10;;;;;;;;;;5064715;28;19920;-90
2022/06/04 15:21:02;;;;;;;0.00;0.00;;;;;;;;;;5049652;28;20127;-86
2022/06/04 15:23:47;;;;;;;0.00;0.00;;;;;;;;;;5048639;28;20045;-88
2022/06/04 15:26:13;;;;;;;0.00;0.00;;;;;;;;;;5042510;28;20076;-93
2022/06/04 15:34:47;;;;;;;0.00;0.00;;;;;;;;;;5062460;28;20037;-92
2022/06/04 15:37:32;;;;;;;0.10;0.10;;;;;;;;;;5045872;28;20082;-91
2022/06/04 15:40:01;;;;;;;0.00;0.00;;;;;;;;;;5049366;28;20044;-91